Time;durP1;ratioP1;P1;durP2;ratioP2;P2;SDS_P1;SDS_P2;PMS_P1;PMS_P2;Temp;Humidity;BMP_temperature;BMP_pressure;BME280_temperature;BME280_humidity;BME280_pressure;Samples;Min_cycle;Max_cycle;Signal;HPM_P1;HPM_P2
2023/04/28 06:15:22;;;;;;;;;1.00;1.00;;;;;18.09;53.43;100963.84;5118157;27;45538;-69
2023/04/28 06:17:47;;;;;;;;;2.50;1.00;;;;;18.25;53.23;100971.50;5109733;27;45480;-71
2023/04/28 06:20:13;;;;;;;;;1.00;1.00;;;;;18.46;53.36;100972.50;5104509;27;45540;-72
2023/04/28 06:22:39;;;;;;;;;1.00;1.00;;;;;18.66;53.05;100976.19;5107109;27;45546;-72
2023/04/28 06:25:05;;;;;;;;;0.00;0.00;;;;;18.86;52.81;100973.66;5103890;27;45596;-72
2023/04/28 06:27:31;;;;;;;;;2.50;1.00;;;;;19.06;52.63;100978.22;5108906;27;45359;-70
2023/04/28 06:29:57;;;;;;;;;0.00;0.00;;;;;19.25;51.94;100975.75;5108616;27;45625;-70
2023/04/28 06:32:22;;;;;;;;;1.00;1.00;;;;;19.44;52.14;100975.81;5105389;27;45578;-70
2023/04/28 06:34:47;;;;;;;;;0.50;0.50;;;;;19.60;51.62;100972.63;5107427;27;57219;-70
2023/04/28 06:37:13;;;;;;;;;1.00;1.00;;;;;19.78;51.38;100968.44;5108870;27;57417;-71
2023/04/28 06:39:38;;;;;;;;;0.00;0.00;;;;;19.93;51.52;100979.66;5108429;27;45411;-70
2023/04/28 06:42:03;;;;;;;;;0.00;0.00;;;;;20.07;50.90;100981.13;5101307;27;45433;-70
2023/04/28 06:44:29;;;;;;;;;1.00;1.00;;;;;20.19;51.25;100977.31;5108665;27;46484;-70
2023/04/28 06:46:54;;;;;;;;;1.00;1.00;;;;;20.31;50.53;100980.72;5097414;27;45990;-69
2023/04/28 06:49:20;;;;;;;;;0.33;0.33;;;;;20.42;50.60;100979.72;5106073;27;45748;-70
2023/04/28 06:51:45;;;;;;;;;1.00;1.00;;;;;20.51;50.36;100984.28;5104622;27;45335;-70
2023/04/28 06:54:11;;;;;;;;;1.00;1.00;;;;;20.60;50.67;100979.84;5106003;27;45967;-70
2023/04/28 06:56:36;;;;;;;;;0.00;0.00;;;;;20.70;50.23;100987.97;5101884;27;45724;-70
2023/04/28 06:59:02;;;;;;;;;0.00;0.00;;;;;20.79;49.62;100995.19;5107407;27;45895;-71
2023/04/28 07:01:27;;;;;;;;;1.00;0.67;;;;;20.87;50.26;100997.19;5095141;27;45718;-71
2023/04/28 07:03:53;;;;;;;;;0.00;0.00;;;;;20.95;49.80;101004.56;5108118;27;46302;-71
2023/04/28 07:06:19;;;;;;;;;1.00;0.00;;;;;21.02;49.99;100999.44;5104998;27;45689;-71
2023/04/28 07:08:44;;;;;;;;;0.67;0.67;;;;;21.08;49.89;101006.09;5105976;27;45621;-71
2023/04/28 07:11:10;;;;;;;;;0.00;0.00;;;;;21.13;49.37;101001.13;5108657;27;45710;-70
2023/04/28 07:13:35;;;;;;;;;0.00;0.00;;;;;21.20;49.18;101007.63;5106021;27;55252;-70
2023/04/28 07:16:00;;;;;;;;;0.00;0.00;;;;;21.25;49.59;100999.09;5108438;27;51308;-72
2023/04/28 07:18:26;;;;;;;;;0.00;0.00;;;;;21.30;49.50;101004.91;5108772;27;45502;-72
2023/04/28 07:20:51;;;;;;;;;1.33;1.33;;;;;21.37;49.72;101005.16;5102656;27;45591;-72
2023/04/28 07:23:17;;;;;;;;;1.00;1.00;;;;;21.40;49.49;101005.72;5103022;27;46439;-71
2023/04/28 07:25:42;;;;;;;;;0.00;0.00;;;;;21.42;49.27;101001.00;5098833;27;45388;-72
2023/04/28 07:28:08;;;;;;;;;0.67;0.67;;;;;21.49;49.27;101003.13;5091516;27;45702;-72
2023/04/28 07:30:34;;;;;;;;;0.67;0.00;;;;;21.51;49.24;101004.69;5093841;27;45618;-72
2023/04/28 07:32:59;;;;;;;;;0.67;0.67;;;;;21.56;49.15;101009.63;5093472;27;46210;-72
2023/04/28 07:35:25;;;;;;;;;0.00;0.00;;;;;21.58;48.81;101016.59;5091932;27;45608;-72
2023/04/28 07:37:51;;;;;;;;;1.00;1.00;;;;;21.62;49.24;101021.69;5086522;27;45537;-72
2023/04/28 07:40:17;;;;;;;;;0.00;0.00;;;;;21.65;49.01;101022.25;5091869;27;45426;-72
2023/04/28 07:42:42;;;;;;;;;0.00;0.00;;;;;21.69;48.67;101017.38;5093853;27;45731;-70
2023/04/28 07:45:08;;;;;;;;;1.00;0.00;;;;;21.71;48.98;101010.84;5093351;27;45556;-70
2023/04/28 07:47:33;;;;;;;;;0.00;0.00;;;;;21.75;48.80;101014.13;5083310;27;45597;-70
2023/04/28 07:50:03;;;;;;;;;0.00;0.00;;;;;21.78;48.24;101007.59;5093066;27;45596;-71
2023/04/28 07:52:29;;;;;;;;;0.00;0.00;;;;;21.81;48.42;101007.25;5094857;27;46086;-71
2023/04/28 07:54:54;;;;;;;;;0.00;0.00;;;;;21.84;48.79;101004.25;5089477;27;46231;-72
2023/04/28 07:57:19;;;;;;;;;1.33;0.00;;;;;21.87;48.64;101005.81;5091039;27;45387;-71
2023/04/28 07:59:45;;;;;;;;;1.00;1.00;;;;;21.88;48.46;101008.38;5085678;27;45532;-70
2023/04/28 08:02:12;;;;;;;;;0.00;0.00;;;;;21.91;48.28;101001.81;5089969;27;45792;-70
2023/04/28 08:04:38;;;;;;;;;0.00;0.00;;;;;21.93;48.02;101008.75;5090284;27;45447;-71
2023/04/28 08:07:03;;;;;;;;;0.67;0.67;;;;;21.96;48.48;101007.63;5082071;27;45538;-71
2023/04/28 08:09:29;;;;;;;;;0.00;0.00;;;;;21.94;48.00;101013.16;5090670;27;45668;-72
2023/04/28 08:11:54;;;;;;;;;0.00;0.00;;;;;21.94;47.78;101007.75;5093903;27;46048;-72
2023/04/28 08:14:20;;;;;;;;;0.00;0.00;;;;;21.94;48.09;101007.75;5087685;27;46500;-71
2023/04/28 08:16:47;;;;;;;;;1.50;1.00;;;;;21.94;47.89;101007.75;5087881;27;45406;-71
2023/04/28 08:19:12;;;;;;;;;1.00;1.00;;;;;21.93;48.20;101008.75;5088953;27;45891;-71
2023/04/28 08:21:38;;;;;;;;;3.00;0.00;;;;;21.93;48.22;101016.00;5084365;27;45986;-71
2023/04/28 08:24:03;;;;;;;;;1.00;1.00;;;;;21.93;47.92;101016.00;5089308;27;45453;-71
2023/04/28 08:26:29;;;;;;;;;1.00;1.00;;;;;21.94;48.19;101015.00;5093311;27;45576;-71
2023/04/28 08:28:54;;;;;;;;;0.00;0.00;;;;;21.92;47.92;101020.59;5093697;27;45694;-71
2023/04/28 08:31:19;;;;;;;;;1.00;1.00;;;;;21.92;47.63;101015.19;5082867;27;46086;-71
2023/04/28 08:33:47;;;;;;;;;0.33;0.00;;;;;21.92;48.03;101015.19;5085817;27;45592;-71
2023/04/28 08:36:13;;;;;;;;;3.00;1.33;;;;;21.94;48.11;101023.09;5089878;27;45327;-70
2023/04/28 08:38:39;;;;;;;;;1.00;1.00;;;;;21.94;48.47;101020.41;5093024;27;45642;-70
2023/04/28 08:41:05;;;;;;;;;0.00;0.00;;;;;21.95;48.09;101017.56;5093155;27;46028;-69
2023/04/28 08:43:34;;;;;;;;;1.33;1.33;;;;;21.98;48.52;101009.16;5092510;27;45569;-69
2023/04/28 08:46:05;;;;;;;;;1.00;1.00;;;;;22.02;48.79;101014.28;5093875;27;45492;-69
2023/04/28 08:48:39;;;;;;;;;1.00;1.00;;;;;22.05;48.64;101020.22;5089317;27;45509;-69
2023/04/28 08:51:06;;;;;;;;;1.00;1.00;;;;;22.08;48.44;101021.75;5093227;27;47049;-70
2023/04/28 08:53:36;;;;;;;;;0.33;0.33;;;;;22.10;48.30;101022.44;5093633;27;45365;-70
2023/04/28 08:56:05;;;;;;;;;0.00;0.00;;;;;22.12;48.60;101028.56;5093366;27;45497;-69
2023/04/28 08:58:34;;;;;;;;;1.33;0.00;;;;;22.13;48.49;101027.56;5091635;27;45495;-68
2023/04/28 09:01:02;;;;;;;;;0.00;0.00;;;;;22.16;48.59;101029.09;5082566;27;46249;-70
2023/04/28 09:03:27;;;;;;;;;0.00;0.00;;;;;22.17;48.57;101031.66;5080367;27;45611;-70
2023/04/28 09:05:53;;;;;;;;;1.00;1.00;;;;;22.19;48.51;101029.66;5084412;27;45563;-68
2023/04/28 09:08:18;;;;;;;;;1.00;1.00;;;;;22.17;47.51;101034.38;5079010;27;45503;-67
2023/04/28 09:10:43;;;;;;;;;1.00;1.00;;;;;22.17;47.44;101031.66;5084233;27;53279;-68
2023/04/28 09:13:08;;;;;;;;;1.00;1.00;;;;;22.17;47.49;101038.91;5072832;27;45835;-67
2023/04/28 09:15:36;;;;;;;;;2.00;0.00;;;;;22.15;47.66;101036.34;5073718;27;45702;-68
2023/04/28 09:18:03;;;;;;;;;1.00;1.00;;;;;22.14;47.60;101036.53;5087124;27;45573;-69
2023/04/28 09:20:30;;;;;;;;;0.00;0.00;;;;;22.13;47.18;101040.22;5079252;27;46271;-67
2023/04/28 09:23:21;;;;;;;;;0.00;0.00;;;;;22.11;47.48;101035.81;5091152;27;45652;-67
2023/04/28 09:26:00;;;;;;;;;0.00;0.00;;;;;22.09;47.17;101032.44;5093380;27;45319;-67
2023/04/28 09:28:26;;;;;;;;;1.00;1.00;;;;;22.10;47.85;101038.66;5092996;27;45437;-70
2023/04/28 09:30:51;;;;;;;;;0.00;0.00;;;;;22.07;47.42;101034.41;5088277;27;46150;-71
2023/04/28 09:33:17;;;;;;;;;1.00;1.00;;;;;22.08;47.91;101035.28;5086157;27;45514;-71
2023/04/28 09:35:47;;;;;;;;;1.00;1.00;;;;;22.11;47.68;101034.97;5086120;27;45422;-71
2023/04/28 09:38:12;;;;;;;;;1.00;1.00;;;;;22.13;47.91;101038.38;5076363;27;45581;-71
2023/04/28 09:40:58;;;;;;;;;0.00;0.00;;;;;22.16;48.12;101039.94;5087145;27;45594;-72
2023/04/28 09:43:32;;;;;;;;;1.00;1.00;;;;;22.18;47.97;101046.88;5085854;27;45434;-70
2023/04/28 09:46:02;;;;;;;;;0.33;0.33;;;;;22.20;48.00;101041.31;5092337;27;45374;-72
2023/04/28 09:48:35;;;;;;;;;0.00;0.00;;;;;22.22;47.88;101050.13;5075292;27;45489;-70
2023/04/28 09:51:02;;;;;;;;;0.00;0.00;;;;;22.24;48.10;101048.13;5075567;27;46219;-71
2023/04/28 09:53:29;;;;;;;;;0.33;0.33;;;;;22.25;48.32;101045.25;5074759;27;45578;-72
2023/04/28 09:55:57;;;;;;;;;1.00;1.00;;;;;22.25;47.95;101050.66;5072692;27;45695;-72
2023/04/28 09:58:24;;;;;;;;;0.00;0.00;;;;;22.25;47.86;101045.25;5082475;27;45381;-70
2023/04/28 10:00:53;;;;;;;;;1.00;1.00;;;;;22.27;48.08;101052.38;5092101;27;47081;-72
2023/04/28 10:03:24;;;;;;;;;0.67;0.00;;;;;22.27;47.80;101041.56;5091343;27;45550;-72
2023/04/28 10:05:52;;;;;;;;;0.00;0.00;;;;;22.29;48.31;101047.66;5087281;27;45754;-72
2023/04/28 10:08:18;;;;;;;;;1.00;1.00;;;;;22.30;48.31;101055.63;5080446;27;45667;-72
2023/04/28 10:10:45;;;;;;;;;1.00;1.00;;;;;22.32;48.14;101041.97;5087621;27;45826;-72
2023/04/28 10:13:11;;;;;;;;;1.67;0.00;;;;;22.34;48.00;101053.47;5077133;27;45685;-71
2023/04/28 10:15:36;;;;;;;;;0.00;0.00;;;;;22.35;48.40;101047.91;5086142;27;46586;-71
2023/04/28 10:18:04;;;;;;;;;2.33;0.00;;;;;22.37;48.10;101047.75;5077861;27;45559;-71
2023/04/28 10:20:30;;;;;;;;;1.00;1.00;;;;;22.37;48.25;101053.16;5075350;27;46145;-71
2023/04/28 10:23:06;;;;;;;;;0.00;0.00;;;;;22.38;48.09;101068.38;5089700;27;45740;-70
2023/04/28 10:25:35;;;;;;;;;1.67;1.00;;;;;22.35;47.71;101060.56;5081664;27;45444;-69
2023/04/28 10:28:06;;;;;;;;;0.00;0.00;;;;;22.35;47.84;101068.66;5082600;27;45376;-71
2023/04/28 10:30:31;;;;;;;;;0.67;0.67;;;;;22.34;47.82;101070.53;5087493;27;46279;-71
2023/04/28 10:33:12;;;;;;;;;1.00;1.00;;;;;22.36;47.60;101067.69;5086561;27;45597;-70
2023/04/28 10:35:44;;;;;;;;;3.00;1.00;;;;;22.33;47.60;101065.28;5086045;27;45477;-70
2023/04/28 10:38:14;;;;;;;;;0.33;0.00;;;;;22.33;47.37;101068.00;5081966;27;45527;-70
2023/04/28 10:40:47;;;;;;;;;2.00;2.00;;;;;22.31;47.39;101065.44;5087384;27;46397;-70
2023/04/28 10:43:31;;;;;;;;;1.00;1.00;;;;;22.29;47.54;101064.75;5073709;27;45528;-70
2023/04/28 10:46:04;;;;;;;;;1.00;1.00;;;;;22.27;48.17;101066.72;5074104;27;45446;-70
2023/04/28 10:48:33;;;;;;;;;1.67;1.00;;;;;22.26;47.39;101067.75;5075365;27;45399;-70
2023/04/28 10:51:04;;;;;;;;;1.00;1.00;;;;;22.24;47.00;101070.59;5079933;27;45714;-70
2023/04/28 10:53:43;;;;;;;;;1.00;1.00;;;;;22.23;47.24;101066.19;5083446;27;45690;-70
2023/04/28 10:56:14;;;;;;;;;2.00;2.00;;;;;22.23;47.20;101070.75;5083784;27;45443;-69
2023/04/28 10:58:50;;;;;;;;;1.00;1.00;;;;;22.20;48.03;101069.19;5083018;27;45432;-71
2023/04/28 11:01:24;;;;;;;;;2.00;1.00;;;;;22.20;48.09;101068.34;5079306;27;47128;-70
2023/04/28 11:04:02;;;;;;;;;1.00;1.00;;;;;22.20;47.61;101073.75;5092585;27;45627;-70
2023/04/28 11:06:31;;;;;;;;;1.33;0.00;;;;;22.17;48.13;101074.06;5095250;27;45524;-70
2023/04/28 11:09:48;;;;;;;;;3.00;2.00;;;;;22.16;47.82;101077.78;5090884;27;45685;-70
2023/04/28 11:12:14;;;;;;;;;1.00;1.00;;;;;22.14;47.95;101079.78;5083283;27;47014;-70
2023/04/28 11:14:40;;;;;;;;;4.33;2.33;;;;;22.13;47.88;101075.34;5093015;27;45517;-70
2023/04/28 11:17:12;;;;;;;;;2.00;0.00;;;;;22.12;47.84;101077.22;5095404;27;45360;-70
2023/04/28 11:19:43;;;;;;;;;3.00;1.00;;;;;22.10;48.06;101071.97;5093096;27;45781;-70
2023/04/28 11:22:22;;;;;;;;;5.00;2.00;;;;;22.10;48.09;101071.09;5087156;27;45427;-70
2023/04/28 11:24:59;;;;;;;;;2.00;2.00;;;;;22.10;47.61;101074.69;5090700;27;45445;-70
2023/04/28 11:27:25;;;;;;;;;2.00;2.00;;;;;22.09;47.50;101069.41;5075968;27;45699;-70
2023/04/28 11:29:51;;;;;;;;;2.33;2.00;;;;;22.08;48.33;101073.13;5076569;27;45677;-68
2023/04/28 11:32:28;;;;;;;;;1.33;1.00;;;;;22.08;48.31;101067.72;5088458;27;46287;-68
2023/04/28 11:34:53;;;;;;;;;2.00;2.00;;;;;22.08;47.71;101063.16;5084909;27;45548;-68
2023/04/28 11:37:20;;;;;;;;;1.00;1.00;;;;;22.10;47.53;101066.56;5090490;27;48702;-68
2023/04/28 11:39:46;;;;;;;;;3.00;1.00;;;;;22.10;47.68;101055.75;5087868;27;45762;-69
2023/04/28 11:42:11;;;;;;;;;1.67;1.00;;;;;22.11;47.51;101062.84;5088712;27;47060;-69
2023/04/28 11:44:37;;;;;;;;;1.00;1.00;;;;;22.12;47.99;101058.31;5086070;27;46816;-70
2023/04/28 11:47:04;;;;;;;;;1.67;1.00;;;;;22.13;47.80;101049.19;5086657;27;45624;-71
2023/04/28 11:49:30;;;;;;;;;1.00;1.00;;;;;22.13;47.82;101048.31;5084242;27;45652;-71
2023/04/28 11:52:07;;;;;;;;;0.67;0.33;;;;;22.12;47.62;101050.19;5086021;27;45425;-71
2023/04/28 11:54:33;;;;;;;;;1.33;1.33;;;;;22.14;47.75;101050.88;5084539;27;45405;-69
2023/04/28 11:57:05;;;;;;;;;1.33;1.00;;;;;22.16;47.92;101048.91;5081102;27;45372;-69
2023/04/28 11:59:32;;;;;;;;;0.00;0.00;;;;;22.19;47.96;101051.28;5076733;27;45764;-69
2023/04/28 12:02:03;;;;;;;;;0.67;0.67;;;;;22.22;48.22;101048.28;5080571;27;46606;-68
2023/04/28 12:04:34;;;;;;;;;2.33;2.33;;;;;22.24;47.66;101048.97;5085211;27;45428;-66
2023/04/28 12:07:10;;;;;;;;;0.00;0.00;;;;;22.27;47.96;101053.22;5088604;27;45410;-66
2023/04/28 12:09:38;;;;;;;;;1.00;1.00;;;;;22.29;48.10;101044.97;5089565;27;45445;-67
2023/04/28 12:12:06;;;;;;;;;3.00;2.00;;;;;22.31;47.85;101045.66;5083562;27;46222;-69
2023/04/28 12:14:52;;;;;;;;;2.33;1.00;;;;;22.31;47.58;101045.66;5088298;27;45548;-68
2023/04/28 12:17:26;;;;;;;;;1.00;1.00;;;;;22.33;48.29;101044.50;5084492;27;45474;-68
2023/04/28 12:19:56;;;;;;;;;3.67;1.67;;;;;22.33;47.91;101049.06;5077972;27;45563;-67
2023/04/28 12:22:22;;;;;;;;;1.00;1.00;;;;;22.34;47.81;101035.38;5083803;27;45570;-67
2023/04/28 12:25:08;;;;;;;;;0.67;0.67;;;;;22.34;47.92;101045.34;5093245;27;45504;-68
2023/04/28 12:27:37;;;;;;;;;1.33;1.00;;;;;22.32;48.17;101037.38;5087086;27;45540;-67
2023/04/28 12:30:04;;;;;;;;;1.33;1.00;;;;;22.33;47.91;101044.50;5093145;27;45598;-68
2023/04/28 12:32:44;;;;;;;;;4.00;1.00;;;;;22.33;47.97;101046.34;5093435;27;45375;-68
2023/04/28 12:35:10;;;;;;;;;1.00;1.00;;;;;22.33;47.57;101049.06;5090028;27;45508;-68
2023/04/28 12:37:37;;;;;;;;;2.00;1.00;;;;;22.32;47.76;101050.91;5079383;27;46947;-68
2023/04/28 12:40:03;;;;;;;;;5.67;2.00;;;;;22.32;47.54;101055.47;5077907;27;45656;-68
2023/04/28 12:42:28;;;;;;;;;2.00;2.00;;;;;22.30;47.24;101052.06;5086617;27;46011;-68
2023/04/28 12:44:54;;;;;;;;;3.00;1.00;;;;;22.30;47.45;101055.63;5084351;27;46379;-68
2023/04/28 12:47:19;;;;;;;;;2.33;2.00;;;;;22.32;47.69;101058.19;5082065;27;47369;-68
2023/04/28 12:49:45;;;;;;;;;0.67;0.67;;;;;22.36;47.69;101057.72;5090677;27;45309;-67
2023/04/28 12:52:11;;;;;;;;;3.33;2.00;;;;;22.38;47.84;101054.84;5091961;27;46431;-68
2023/04/28 12:54:36;;;;;;;;;1.33;1.33;;;;;22.39;47.90;101059.25;5092199;27;45539;-68
2023/04/28 12:57:03;;;;;;;;;2.00;1.00;;;;;22.42;47.39;101053.53;5092410;27;50228;-67
2023/04/28 12:59:30;;;;;;;;;1.00;1.00;;;;;22.45;47.46;101049.69;5088581;27;45638;-70
2023/04/28 13:01:55;;;;;;;;;2.33;1.00;;;;;22.45;47.59;101036.16;5091944;27;46149;-70
2023/04/28 13:04:21;;;;;;;;;1.67;1.00;;;;;22.48;47.22;101047.50;5093555;27;45381;-67
2023/04/28 13:06:46;;;;;;;;;1.67;0.67;;;;;22.51;47.33;101043.66;5086073;27;45486;-67
2023/04/28 13:09:16;;;;;;;;;3.00;0.00;;;;;22.53;47.03;101035.38;5083110;27;45841;-67
2023/04/28 13:11:42;;;;;;;;;2.67;1.00;;;;;22.55;47.18;101046.91;5088852;27;45487;-68
2023/04/28 13:14:08;;;;;;;;;2.00;1.00;;;;;22.56;47.08;101044.06;5088801;27;45462;-69
2023/04/28 13:16:33;;;;;;;;;2.33;1.00;;;;;22.57;47.13;101045.78;5093147;27;45472;-69
2023/04/28 13:19:00;;;;;;;;;1.00;1.00;;;;;22.57;47.16;101045.78;5093360;27;45441;-69
2023/04/28 13:21:27;;;;;;;;;0.67;0.00;;;;;22.57;46.79;101047.63;5091560;27;46324;-69
2023/04/28 13:23:53;;;;;;;;;3.00;2.00;;;;;22.58;46.83;101043.91;5092487;27;45616;-70
2023/04/28 13:26:20;;;;;;;;;1.00;1.00;;;;;22.58;47.43;101041.22;5090934;27;45458;-70
2023/04/28 13:28:46;;;;;;;;;2.00;1.67;;;;;22.58;47.10;101035.81;5092252;27;45484;-70
2023/04/28 13:31:13;;;;;;;;;2.33;2.00;;;;;22.57;46.67;101032.25;5091609;27;46307;-70
2023/04/28 13:33:38;;;;;;;;;1.00;1.00;;;;;22.56;47.31;101032.41;5092444;27;45462;-70
2023/04/28 13:36:04;;;;;;;;;0.00;0.00;;;;;22.57;46.82;101028.69;5091789;27;45377;-70
2023/04/28 13:38:29;;;;;;;;;1.00;1.00;;;;;22.56;46.98;101025.13;5092762;27;45519;-70
2023/04/28 13:40:55;;;;;;;;;0.33;0.33;;;;;22.55;46.89;101026.13;5089456;27;45856;-70
2023/04/28 13:43:20;;;;;;;;;3.00;1.00;;;;;22.55;47.02;101027.97;5086735;27;54298;-70
2023/04/28 13:45:45;;;;;;;;;1.00;1.00;;;;;22.51;46.84;101016.59;5078896;27;46769;-70
2023/04/28 13:48:11;;;;;;;;;1.00;1.00;;;;;22.52;47.10;101026.41;5059514;27;47174;-70
2023/04/28 13:50:37;;;;;;;;;2.33;0.67;;;;;22.53;46.97;101024.56;5064787;27;46243;-70
2023/04/28 13:53:02;;;;;;;;;0.67;0.67;;;;;22.54;46.64;101029.84;5060443;27;45841;-70
2023/04/28 13:55:28;;;;;;;;;2.00;2.00;;;;;22.53;46.87;101022.72;5061514;27;47379;-71
2023/04/28 13:57:54;;;;;;;;;2.00;1.00;;;;;22.54;47.88;101021.75;5085903;27;45485;-70
2023/04/28 14:00:20;;;;;;;;;1.00;1.00;;;;;22.57;47.73;101012.47;5070850;27;45722;-71
2023/04/28 14:05:21;;;;;;;;;1.67;1.67;;;;;22.59;47.22;101029.38;5347592;22;45732;-72
2023/04/28 14:07:46;;;;;;;;;2.00;2.00;;;;;22.55;47.55;101031.56;5007657;28;45969;-74
2023/04/28 14:10:11;;;;;;;;;4.00;1.00;;;;;22.59;48.29;101022.13;5012159;28;52635;-83
2023/04/28 14:12:37;;;;;;;;;0.00;0.00;;;;;22.61;48.51;101020.09;5010302;28;47291;-75
2023/04/28 14:15:04;;;;;;;;;1.00;1.00;;;;;22.64;48.69;101030.63;5011984;28;45743;-75
2023/04/28 14:17:31;;;;;;;;;0.00;0.00;;;;;22.68;48.65;101027.63;5008869;28;45654;-75
2023/04/28 14:19:56;;;;;;;;;1.00;1.00;;;;;22.70;48.42;101021.03;5010353;28;46202;-75
2023/04/28 14:22:22;;;;;;;;;1.67;1.67;;;;;22.75;48.89;101021.41;5011698;28;45423;-78
2023/04/28 14:24:47;;;;;;;;;1.00;1.00;;;;;22.80;48.61;101028.22;5010473;28;45481;-79
2023/04/28 14:27:13;;;;;;;;;1.67;1.67;;;;;22.83;49.04;101020.63;5010356;28;45626;-81
2023/04/28 14:29:40;;;;;;;;;1.00;0.33;;;;;22.86;49.13;101008.63;5009923;28;46327;-81
2023/04/28 14:32:06;;;;;;;;;1.00;1.00;;;;;22.90;48.56;101002.75;5011232;28;45503;-74
2023/04/28 14:34:31;;;;;;;;;0.33;0.33;;;;;22.95;48.91;101009.53;5011694;28;45474;-74
2023/04/28 14:36:56;;;;;;;;;0.00;0.00;;;;;22.97;49.13;101002.97;5013158;28;46143;-74
2023/04/28 14:39:22;;;;;;;;;2.33;1.00;;;;;23.01;49.04;100995.41;5015518;28;45485;-75
2023/04/28 14:41:47;;;;;;;;;2.00;1.00;;;;;23.04;48.98;101003.19;5013904;28;55409;-82
2023/04/28 14:44:12;;;;;;;;;1.00;0.33;;;;;23.06;49.04;101003.03;5013484;28;45783;-81
2023/04/28 14:46:38;;;;;;;;;1.00;1.00;;;;;23.08;49.06;101007.28;5014360;28;49348;-86
2023/04/28 14:49:04;;;;;;;;;1.33;1.33;;;;;23.09;48.85;100994.59;5014326;28;45463;-83
2023/04/28 14:51:30;;;;;;;;;1.00;1.00;;;;;23.12;48.89;100988.84;5014286;28;45451;-75
2023/04/28 14:53:55;;;;;;;;;1.33;1.33;;;;;23.14;48.83;100981.44;5013669;28;45382;-74
2023/04/28 14:56:20;;;;;;;;;2.00;0.33;;;;;23.15;49.08;100983.13;5012417;28;45550;-75
2023/04/28 14:58:47;;;;;;;;;2.00;1.00;;;;;23.14;48.86;100984.13;5013592;28;46316;-73
2023/04/28 15:01:12;;;;;;;;;1.33;1.00;;;;;23.17;48.81;100995.50;5013809;28;45834;-77
2023/04/28 15:03:38;;;;;;;;;0.00;0.00;;;;;23.19;48.22;100999.88;5014647;28;45923;-73
2023/04/28 15:06:04;;;;;;;;;1.67;1.67;;;;;23.15;47.27;100985.81;5012960;28;45552;-72
2023/04/28 15:08:30;;;;;;;;;1.00;1.00;;;;;23.14;47.86;100992.25;5012851;28;46588;-79
2023/04/28 15:10:55;;;;;;;;;2.00;2.00;;;;;23.13;48.15;100991.41;5012865;28;45669;-77
2023/04/28 15:13:21;;;;;;;;;1.67;1.67;;;;;23.14;48.11;100987.66;5012320;28;45359;-82
2023/04/28 15:15:47;;;;;;;;;3.67;2.00;;;;;23.16;48.33;100988.38;5013426;28;45512;-78
2023/04/28 15:18:13;;;;;;;;;1.67;1.67;;;;;23.19;48.39;100998.03;5014446;28;47256;-74
2023/04/28 15:20:38;;;;;;;;;2.00;2.00;;;;;23.20;48.10;101002.44;5014219;28;45472;-74
2023/04/28 15:23:03;;;;;;;;;3.00;1.67;;;;;23.21;48.18;100998.72;5013955;28;45414;-75
2023/04/28 15:25:28;;;;;;;;;1.67;1.67;;;;;23.21;48.57;100996.00;5013611;28;45507;-77
2023/04/28 15:27:54;;;;;;;;;2.67;2.00;;;;;23.23;48.18;101003.97;5011996;28;47315;-76
2023/04/28 15:30:20;;;;;;;;;1.67;1.67;;;;;23.23;48.76;101003.97;5013842;28;45736;-73
2023/04/28 15:32:45;;;;;;;;;0.00;0.00;;;;;23.24;48.42;100990.28;5012571;28;45760;-73
2023/04/28 15:35:11;;;;;;;;;1.00;1.00;;;;;23.25;48.30;100993.81;5013062;28;45551;-77
2023/04/28 15:37:36;;;;;;;;;1.33;1.33;;;;;23.27;48.25;101002.66;5012641;28;45914;-77
2023/04/28 15:40:02;;;;;;;;;2.33;1.00;;;;;23.27;48.53;101006.22;5011681;28;45541;-73
2023/04/28 15:42:27;;;;;;;;;6.00;2.00;;;;;23.28;48.42;100997.06;5012644;28;45426;-74
2023/04/28 15:44:53;;;;;;;;;1.00;1.00;;;;;23.28;48.66;101005.19;5010875;28;45504;-75
2023/04/28 15:47:19;;;;;;;;;0.00;0.00;;;;;23.30;49.00;101002.34;5012395;28;55795;-74
2023/04/28 15:49:44;;;;;;;;;0.00;0.00;;;;;23.29;48.58;101001.47;5011911;28;45616;-78
2023/04/28 15:52:10;;;;;;;;;0.00;0.00;;;;;23.30;49.00;101003.16;5012670;28;45869;-77
2023/04/28 15:54:35;;;;;;;;;0.33;0.33;;;;;23.31;48.64;101004.03;5011364;28;45353;-74
2023/04/28 15:57:01;;;;;;;;;0.67;0.67;;;;;23.32;48.78;101013.84;5011850;28;46975;-74
2023/04/28 15:59:26;;;;;;;;;1.33;1.33;;;;;23.30;48.34;101003.16;5013207;28;45470;-77
2023/04/28 16:01:51;;;;;;;;;0.33;0.33;;;;;23.34;48.84;101014.56;5011639;28;57976;-76
2023/04/28 16:04:16;;;;;;;;;1.00;1.00;;;;;23.33;48.43;101004.75;5011960;28;45535;-73
2023/04/28 16:06:42;;;;;;;;;0.00;0.00;;;;;23.35;48.71;101008.16;5011822;28;50921;-74
2023/04/28 16:09:07;;;;;;;;;1.33;1.00;;;;;23.32;48.07;101003.00;5009257;28;45542;-75
2023/04/28 16:11:33;;;;;;;;;1.00;1.00;;;;;23.22;46.33;100997.69;5011393;28;46864;-73
2023/04/28 16:13:58;;;;;;;;;1.00;1.00;;;;;23.25;46.77;101008.22;5010302;28;45485;-73
2023/04/28 16:16:24;;;;;;;;;3.00;1.33;;;;;23.23;46.57;101014.81;5007282;28;47992;-73
2023/04/28 16:18:49;;;;;;;;;3.00;1.33;;;;;23.18;46.39;101012.59;5008338;28;45428;-73
2023/04/28 16:21:16;;;;;;;;;0.67;0.67;;;;;23.14;46.25;101014.75;5007120;28;46148;-74
2023/04/28 16:23:41;;;;;;;;;1.00;1.00;;;;;23.09;46.45;101017.09;5008055;28;45798;-70
2023/04/28 16:26:06;;;;;;;;;1.67;1.67;;;;;23.07;46.25;101013.69;5011805;28;46323;-75
2023/04/28 16:28:32;;;;;;;;;0.67;0.67;;;;;23.06;46.21;101016.56;5013453;28;45890;-73
2023/04/28 16:30:58;;;;;;;;;0.67;0.67;;;;;23.04;45.87;101016.72;5012572;28;45400;-72
2023/04/28 16:33:23;;;;;;;;;3.00;2.00;;;;;23.01;45.94;101015.19;5012118;28;45462;-73
2023/04/28 16:35:53;;;;;;;;;1.67;1.67;;;;;22.97;45.93;101019.19;5011636;28;46093;-72
2023/04/28 16:38:19;;;;;;;;;2.00;2.00;;;;;22.96;45.55;101016.66;5011611;28;45726;-71
2023/04/28 16:40:44;;;;;;;;;1.00;1.00;;;;;22.94;45.44;101019.53;5013242;28;45563;-73
2023/04/28 16:43:10;;;;;;;;;1.00;1.00;;;;;22.84;45.32;101003.38;5013325;28;45348;-73
2023/04/28 16:45:35;;;;;;;;;5.00;3.00;;;;;22.91;45.63;101009.00;5006581;28;58418;-73
